createdAt,value
2023-04-16T00:01:15.578Z,5.95
2023-04-16T00:06:36.503Z,5.90
2023-04-16T00:11:57.479Z,5.93
2023-04-16T00:17:18.281Z,5.89
2023-04-16T00:22:39.633Z,5.87
2023-04-16T00:28:00.438Z,6.00
2023-04-16T00:33:21.587Z,6.09
2023-04-16T00:38:42.157Z,6.04
2023-04-16T00:44:02.888Z,5.87
2023-04-16T00:49:24.629Z,5.83
2023-04-16T00:54:46.086Z,5.85
2023-04-16T01:00:08.653Z,6.00
2023-04-16T01:05:30.298Z,5.99
2023-04-16T01:10:50.985Z,6.08
2023-04-16T01:16:12.941Z,6.18
2023-04-16T01:21:33.946Z,6.27
2023-04-16T01:26:54.497Z,6.33
2023-04-16T01:32:15.594Z,6.37
2023-04-16T01:37:37.629Z,6.33
2023-04-16T01:42:58.283Z,6.29
2023-04-16T01:48:19.102Z,6.36
2023-04-16T01:53:39.920Z,6.31
2023-04-16T01:59:00.712Z,6.33
2023-04-16T02:04:27.566Z,6.34
2023-04-16T02:09:50.239Z,6.36
2023-04-16T02:15:11.751Z,6.13
2023-04-16T02:20:32.735Z,5.99
2023-04-16T02:25:54.463Z,5.89
2023-04-16T02:31:18.047Z,5.73
2023-04-16T02:36:39.173Z,5.73
2023-04-16T02:42:01.562Z,5.74
2023-04-16T02:47:22.252Z,5.85
2023-04-16T02:52:43.471Z,5.99
2023-04-16T02:58:04.120Z,6.05
2023-04-16T03:03:24.825Z,6.08
2023-04-16T03:08:45.462Z,6.05
2023-04-16T03:14:06.229Z,6.07
2023-04-16T03:19:26.935Z,6.03
2023-04-16T03:24:47.570Z,6.05
2023-04-16T03:30:11.039Z,6.02
2023-04-16T03:35:31.874Z,5.95
2023-04-16T03:40:52.494Z,5.86
2023-04-16T03:46:13.658Z,5.92
2023-04-16T03:51:34.326Z,6.01
2023-04-16T03:56:55.086Z,6.05
2023-04-16T04:02:16.303Z,6.21
2023-04-16T04:07:37.610Z,6.24
2023-04-16T04:12:58.832Z,6.31
2023-04-16T04:18:19.833Z,6.32
2023-04-16T04:23:41.696Z,6.32
2023-04-16T04:29:02.556Z,6.28
2023-04-16T04:34:24.456Z,6.22
2023-04-16T04:39:45.185Z,6.29
2023-04-16T04:45:07.678Z,6.42
2023-04-16T04:50:29.488Z,6.54
2023-04-16T04:55:54.185Z,6.52
2023-04-16T05:01:18.828Z,6.52
2023-04-16T05:06:39.511Z,6.74
2023-04-16T05:12:00.285Z,6.69
2023-04-16T05:17:20.995Z,6.70
2023-04-16T05:22:41.738Z,6.66
2023-04-16T05:28:02.621Z,6.53
2023-04-16T05:33:23.322Z,6.66
2023-04-16T05:38:44.050Z,6.66
2023-04-16T05:44:04.949Z,6.60
2023-04-16T05:49:26.012Z,6.60
2023-04-16T05:54:46.601Z,6.49
2023-04-16T06:00:08.144Z,6.49
2023-04-16T06:05:35.056Z,6.48
2023-04-16T06:10:56.626Z,6.61
2023-04-16T06:16:17.415Z,6.68
2023-04-16T06:21:38.334Z,6.79
2023-04-16T06:26:59.444Z,6.97
2023-04-16T06:32:20.258Z,7.02
2023-04-16T06:37:41.452Z,6.95
2023-04-16T06:43:02.090Z,6.99
2023-04-16T06:48:22.744Z,6.96
2023-04-16T06:53:43.543Z,7.13
2023-04-16T06:59:04.933Z,7.38
2023-04-16T07:04:26.180Z,7.41
2023-04-16T07:09:47.239Z,7.44
2023-04-16T07:15:08.785Z,7.63
2023-04-16T07:20:29.426Z,7.77
2023-04-16T07:25:50.498Z,7.81
2023-04-16T07:31:11.499Z,7.59
2023-04-16T07:36:32.343Z,7.66
2023-04-16T07:41:53.297Z,7.73
2023-04-16T07:47:14.185Z,7.77
2023-04-16T07:52:35.059Z,8.18
2023-04-16T07:57:55.755Z,8.42
2023-04-16T08:03:16.751Z,8.71
2023-04-16T08:08:37.849Z,8.82
2023-04-16T08:13:58.793Z,8.92
2023-04-16T08:19:19.636Z,9.00
2023-04-16T08:24:40.434Z,8.96
2023-04-16T08:30:01.196Z,9.15
2023-04-16T08:35:21.868Z,9.03
2023-04-16T08:40:43.601Z,9.00
2023-04-16T08:46:05.907Z,8.97
2023-04-16T08:51:34.056Z,9.06
2023-04-16T08:56:56.054Z,9.08
2023-04-16T09:02:17.313Z,9.22
2023-04-16T09:07:38.956Z,9.34
2023-04-16T09:12:59.927Z,9.50
2023-04-16T09:18:21.347Z,9.63
2023-04-16T09:23:42.391Z,9.89
2023-04-16T09:29:03.347Z,10.13
2023-04-16T09:34:24.351Z,10.36
2023-04-16T09:39:53.080Z,10.31
2023-04-16T09:45:14.019Z,10.48
2023-04-16T09:50:34.754Z,10.67
2023-04-16T09:56:03.163Z,10.85
2023-04-16T10:01:24.403Z,10.96
2023-04-16T10:06:48.543Z,11.11
2023-04-16T10:12:09.605Z,11.21
2023-04-16T10:17:31.648Z,11.32
2023-04-16T10:22:54.453Z,11.24
2023-04-16T10:28:16.209Z,11.28
2023-04-16T10:33:40.766Z,11.21
2023-04-16T10:39:01.401Z,11.26
2023-04-16T10:44:24.970Z,11.47
2023-04-16T10:49:48.236Z,11.74
2023-04-16T10:55:17.145Z,11.61
2023-04-16T11:00:51.283Z,11.50
2023-04-16T11:06:17.743Z,11.29
2023-04-16T11:11:39.661Z,11.31
2023-04-16T11:17:03.848Z,11.22
2023-04-16T11:22:25.941Z,11.32
2023-04-16T11:27:46.723Z,11.42
2023-04-16T11:33:12.029Z,11.57
2023-04-16T11:38:36.895Z,11.69
2023-04-16T11:43:57.807Z,11.69
2023-04-16T11:49:27.654Z,11.65
2023-04-16T11:54:50.741Z,11.56
2023-04-16T12:00:16.126Z,11.62
2023-04-16T12:05:39.349Z,11.53
2023-04-16T12:11:00.507Z,11.42
2023-04-16T12:16:21.450Z,11.41
2023-04-16T12:21:45.491Z,11.63
2023-04-16T12:27:06.875Z,11.70
2023-04-16T12:32:28.624Z,11.76
2023-04-16T12:37:49.624Z,11.74
2023-04-16T12:43:10.856Z,11.64
2023-04-16T12:48:32.677Z,11.68
2023-04-16T12:53:55.798Z,11.73
2023-04-16T12:59:17.873Z,11.86
2023-04-16T13:04:38.956Z,11.88
2023-04-16T13:10:01.035Z,12.01
2023-04-16T13:15:21.573Z,12.19
2023-04-16T13:20:42.460Z,12.24
2023-04-16T13:26:03.130Z,12.07
2023-04-16T13:31:23.984Z,11.96
2023-04-16T13:36:44.580Z,11.88
2023-04-16T13:42:05.433Z,11.83
2023-04-16T13:47:26.284Z,12.03
2023-04-16T13:52:47.323Z,12.20
2023-04-16T13:58:07.894Z,12.31
2023-04-16T14:03:28.833Z,12.47
2023-04-16T14:08:49.382Z,12.50
2023-04-16T14:14:10.062Z,12.60
2023-04-16T14:19:31.031Z,12.58
2023-04-16T14:24:51.891Z,12.71
2023-04-16T14:30:12.889Z,12.69
2023-04-16T14:35:34.566Z,12.76
2023-04-16T14:40:55.368Z,13.04
2023-04-16T14:46:19.408Z,13.07
2023-04-16T14:51:41.325Z,12.95
2023-04-16T14:57:02.572Z,13.07
2023-04-16T15:02:23.392Z,13.21
2023-04-16T15:07:44.563Z,13.13
2023-04-16T15:13:05.089Z,13.01
2023-04-16T15:18:26.188Z,12.77
2023-04-16T15:23:47.213Z,12.65
2023-04-16T15:29:07.987Z,12.64
2023-04-16T15:34:28.454Z,12.67
2023-04-16T15:39:49.810Z,12.61
2023-04-16T15:45:10.950Z,12.60
2023-04-16T15:50:32.737Z,12.59
2023-04-16T15:55:54.704Z,12.62
2023-04-16T16:01:15.731Z,12.61
2023-04-16T16:06:38.112Z,12.59
2023-04-16T16:11:59.793Z,12.56
2023-04-16T16:17:20.773Z,12.54
2023-04-16T16:22:45.265Z,12.60
2023-04-16T16:28:06.697Z,12.72
2023-04-16T16:33:28.843Z,12.64
2023-04-16T16:38:49.840Z,12.61
2023-04-16T16:44:10.644Z,12.47
2023-04-16T16:49:31.744Z,12.31
2023-04-16T16:54:56.897Z,12.16
2023-04-16T17:00:20.106Z,12.01
2023-04-16T17:05:41.450Z,11.91
2023-04-16T17:11:05.647Z,11.77
2023-04-16T17:16:26.414Z,11.69
2023-04-16T17:21:46.975Z,11.63
2023-04-16T17:27:07.811Z,11.54
2023-04-16T17:32:29.834Z,11.46
2023-04-16T17:37:51.373Z,11.38
2023-04-16T17:43:12.110Z,11.23
2023-04-16T17:48:32.876Z,11.05
2023-04-16T17:53:53.856Z,10.96
2023-04-16T17:59:14.703Z,10.86
2023-04-16T18:04:35.763Z,10.77
2023-04-16T18:09:57.079Z,10.72
2023-04-16T18:15:18.069Z,10.77
2023-04-16T18:20:38.950Z,10.72
2023-04-16T18:25:59.966Z,10.56
2023-04-16T18:31:22.016Z,10.45
2023-04-16T18:36:43.106Z,10.43
2023-04-16T18:42:04.070Z,10.34
2023-04-16T18:47:25.118Z,10.29
2023-04-16T18:52:46.322Z,10.26
2023-04-16T18:58:07.172Z,10.26
2023-04-16T19:03:29.724Z,10.39
2023-04-16T19:08:50.737Z,10.34
2023-04-16T19:14:11.596Z,10.33
2023-04-16T19:19:32.404Z,10.29
2023-04-16T19:24:54.730Z,10.30
2023-04-16T19:30:15.645Z,10.21
2023-04-16T19:35:36.491Z,10.26
2023-04-16T19:40:57.205Z,10.17
2023-04-16T19:46:18.167Z,10.05
2023-04-16T19:51:39.051Z,9.89
2023-04-16T19:56:59.821Z,9.77
2023-04-16T20:02:20.906Z,9.66
2023-04-16T20:07:42.134Z,9.58
2023-04-16T20:13:03.004Z,9.21
2023-04-16T20:18:24.870Z,9.00
2023-04-16T20:23:46.928Z,9.02
2023-04-16T20:29:08.059Z,9.14
2023-04-16T20:34:29.101Z,9.11
2023-04-16T20:39:54.189Z,8.98
2023-04-16T20:45:15.526Z,9.06
2023-04-16T20:50:36.459Z,9.04
2023-04-16T20:55:57.671Z,8.97
2023-04-16T21:01:18.490Z,8.91
2023-04-16T21:06:43.078Z,8.87
2023-04-16T21:12:04.169Z,8.88
2023-04-16T21:17:25.027Z,8.85
2023-04-16T21:22:45.864Z,8.79
2023-04-16T21:28:06.790Z,8.73
2023-04-16T21:33:27.804Z,8.59
2023-04-16T21:38:48.564Z,8.49
2023-04-16T21:44:09.352Z,8.46
2023-04-16T21:49:30.130Z,8.45
2023-04-16T21:54:51.150Z,8.39
2023-04-16T22:00:14.352Z,8.39
2023-04-16T22:05:35.106Z,8.36
2023-04-16T22:11:00.316Z,8.32
2023-04-16T22:16:21.458Z,8.34
2023-04-16T22:21:42.531Z,8.28
2023-04-16T22:27:03.667Z,8.23
2023-04-16T22:32:24.580Z,8.18
2023-04-16T22:37:45.678Z,8.13
2023-04-16T22:43:06.273Z,8.06
2023-04-16T22:48:27.098Z,8.01
2023-04-16T22:53:47.778Z,8.02
2023-04-16T22:59:08.633Z,8.00
2023-04-16T23:04:29.548Z,8.01
2023-04-16T23:09:50.358Z,8.03
2023-04-16T23:15:11.552Z,7.98
2023-04-16T23:20:32.377Z,7.93
2023-04-16T23:25:53.840Z,7.83
2023-04-16T23:31:14.427Z,7.72
2023-04-16T23:36:35.112Z,7.62
2023-04-16T23:41:57.195Z,7.52
2023-04-16T23:47:18.061Z,7.40
2023-04-16T23:52:38.645Z,7.31
2023-04-16T23:57:59.401Z,7.38
